Time;durP1;ratioP1;P1;durP2;ratioP2;P2;SDS_P1;SDS_P2;PMS_P1;PMS_P2;Temp;Humidity;BMP_temperature;BMP_pressure;BME280_temperature;BME280_humidity;BME280_pressure;Samples;Min_cycle;Max_cycle;Signal;HPM_P1;HPM_P2
2021/05/14 00:00:37;;;;;;;12.77;7.13;;;;;;;9.98;65.42;98211.92;234411;1175;116734;-66
2021/05/14 00:05:49;;;;;;;20.68;9.43;;;;;;;10.07;65.49;98217.51;233460;1174;115685;-65
2021/05/14 00:10:53;;;;;;;15.87;8.87;;;;;;;9.97;64.92;98214.84;234082;1174;115773;-65
2021/05/14 00:15:57;;;;;;;12.80;7.77;;;;;;;9.82;65.89;98206.86;232734;1174;116266;-66
2021/05/14 00:21:00;;;;;;;23.43;12.20;;;;;;;9.69;65.71;98216.98;232843;1174;114769;-65
2021/05/14 00:26:03;;;;;;;20.13;11.17;;;;;;;9.70;66.15;98215.13;232549;1174;116019;-66
2021/05/14 00:31:07;;;;;;;27.67;12.13;;;;;;;9.68;65.37;98212.73;233495;1174;115434;-66
2021/05/14 00:36:10;;;;;;;15.00;9.17;;;;;;;9.64;65.92;98203.67;233187;1170;116057;-66
2021/05/14 00:41:13;;;;;;;10.50;7.30;;;;;;;9.41;65.91;98209.52;232733;1174;115387;-65
2021/05/14 00:46:17;;;;;;;13.73;7.27;;;;;;;9.24;66.53;98203.62;232868;1174;115475;-65
2021/05/14 00:51:20;;;;;;;15.90;7.33;;;;;;;9.15;65.91;98197.24;233271;1174;115567;-65
2021/05/14 00:56:24;;;;;;;8.68;6.55;;;;;;;9.05;66.32;98196.15;232487;1174;115879;-66
2021/05/14 01:01:27;;;;;;;12.28;6.63;;;;;;;8.92;66.30;98203.80;232679;1174;114718;-66
2021/05/14 01:06:31;;;;;;;10.87;6.40;;;;;;;8.84;67.27;98202.47;233022;1174;114887;-65
2021/05/14 01:11:34;;;;;;;9.38;6.03;;;;;;;8.85;67.83;98205.93;233102;1174;115227;-67
2021/05/14 01:16:38;;;;;;;9.30;6.80;;;;;;;8.83;67.13;98203.53;232533;1174;114800;-65
2021/05/14 01:21:41;;;;;;;7.78;6.85;;;;;;;8.74;66.99;98194.45;233970;1174;114496;-65
2021/05/14 01:26:44;;;;;;;5.55;4.18;;;;;;;8.60;67.33;98206.60;233296;1174;115670;-67
2021/05/14 01:31:50;;;;;;;7.63;4.93;;;;;;;8.38;67.02;98196.95;233303;1174;115608;-65
2021/05/14 01:36:54;;;;;;;8.35;4.48;;;;;;;8.22;67.41;98203.21;233573;1174;114890;-65
2021/05/14 01:41:59;;;;;;;6.78;6.10;;;;;;;8.17;67.88;98195.22;234034;1174;118228;-65
2021/05/14 01:47:04;;;;;;;7.83;6.33;;;;;;;8.20;68.00;98200.02;235234;1174;115154;-65
2021/05/14 01:52:08;;;;;;;6.20;5.60;;;;;;;8.24;67.99;98194.99;235083;1174;115047;-65
2021/05/14 01:57:11;;;;;;;7.95;4.40;;;;;;;8.16;68.06;98206.88;234793;1174;114878;-66
2021/05/14 02:02:18;;;;;;;6.38;5.13;;;;;;;8.07;68.69;98216.38;234124;1171;114303;-65
2021/05/14 02:07:21;;;;;;;6.33;5.73;;;;;;;8.11;68.60;98212.95;233008;1170;114678;-66
2021/05/14 02:12:25;;;;;;;18.23;7.27;;;;;;;8.10;69.11;98221.17;233331;1174;115927;-64
2021/05/14 02:17:29;;;;;;;7.50;5.90;;;;;;;8.09;69.53;98230.98;233430;1174;115768;-65
2021/05/14 02:22:37;;;;;;;9.87;6.37;;;;;;;8.17;69.95;98237.69;233465;1175;115567;-65
2021/05/14 02:27:41;;;;;;;8.68;5.30;;;;;;;8.21;69.63;98238.77;232629;1174;116214;-65
2021/05/14 02:32:45;;;;;;;8.75;6.35;;;;;;;8.31;69.87;98232.70;233082;1176;117389;-65
2021/05/14 02:37:49;;;;;;;8.10;7.30;;;;;;;8.35;70.01;98233.83;233205;1174;115479;-67
2021/05/14 02:42:52;;;;;;;11.10;8.65;;;;;;;8.36;69.49;98230.92;233365;1174;115770;-65
2021/05/14 02:47:56;;;;;;;13.07;9.63;;;;;;;8.43;69.52;98228.84;232941;1174;116418;-65
2021/05/14 02:52:59;;;;;;;14.15;9.65;;;;;;;8.53;69.52;98245.90;232707;1174;115766;-65
2021/05/14 02:58:03;;;;;;;11.53;10.20;;;;;;;8.56;70.38;98248.81;232663;1174;116161;-64
2021/05/14 03:03:07;;;;;;;21.25;12.05;;;;;;;8.61;70.44;98243.53;233195;1174;116021;-65
2021/05/14 03:08:10;;;;;;;31.53;15.18;;;;;;;8.71;71.25;98248.91;232806;1174;115017;-65
2021/05/14 03:13:13;;;;;;;25.20;15.10;;;;;;;8.84;71.91;98263.59;233146;1174;115288;-67
2021/05/14 03:18:16;;;;;;;27.30;16.80;;;;;;;9.03;71.66;98277.20;233180;1174;115890;-65
2021/05/14 03:23:19;;;;;;;31.33;20.03;;;;;;;9.24;72.21;98278.06;232723;1174;115761;-67
2021/05/14 03:28:23;;;;;;;28.80;20.13;;;;;;;9.44;72.82;98275.48;232995;1174;115655;-65
2021/05/14 03:33:26;;;;;;;30.70;18.83;;;;;;;9.59;73.03;98280.81;233356;1176;115560;-65
2021/05/14 03:38:33;;;;;;;36.63;22.40;;;;;;;9.76;73.38;98281.39;233861;1174;114733;-65
2021/05/14 03:43:39;;;;;;;31.58;20.05;;;;;;;9.98;73.20;98288.31;234250;1174;116173;-64
2021/05/14 03:48:42;;;;;;;26.90;20.00;;;;;;;10.11;73.27;98285.11;234050;1174;115672;-66
2021/05/14 03:53:44;;;;;;;39.00;24.20;;;;;;;10.32;73.29;98285.95;235049;1174;115300;-63
2021/05/14 03:58:47;;;;;;;41.60;27.33;;;;;;;10.49;73.65;98288.30;235190;1174;115563;-63
2021/05/14 04:03:51;;;;;;;41.13;24.77;;;;;;;10.67;73.50;98298.41;234353;1174;116580;-65
2021/05/14 04:08:55;;;;;;;35.10;26.03;;;;;;;10.88;73.78;98307.94;234802;1174;115152;-65
2021/05/14 04:19:21;;;;;;;53.80;27.08;;;;;;;11.13;74.10;98305.19;233251;1174;115928;-66
2021/05/14 04:24:26;;;;;;;45.63;27.43;;;;;;;11.19;74.39;98307.84;232803;1174;115181;-66
2021/05/14 04:29:29;;;;;;;43.80;29.50;;;;;;;11.30;73.92;98306.73;232390;1174;115738;-67
2021/05/14 04:34:32;;;;;;;46.08;28.40;;;;;;;11.44;74.05;98311.18;232989;1174;115537;-66
2021/05/14 04:39:42;;;;;;;45.00;26.60;;;;;;;11.63;73.92;98310.53;232758;1174;116258;-68
2021/05/14 04:44:46;;;;;;;42.97;25.37;;;;;;;11.82;74.20;98310.73;232754;1174;116321;-64
2021/05/14 04:49:49;;;;;;;42.35;27.05;;;;;;;12.04;74.07;98308.43;233116;1174;121436;-66
2021/05/14 04:54:56;;;;;;;39.55;26.35;;;;;;;12.14;73.99;98316.38;233231;1174;116121;-67
2021/05/14 04:59:59;;;;;;;36.30;22.50;;;;;;;12.26;73.76;98316.80;232502;1174;116597;-67
2021/05/14 05:05:04;;;;;;;41.80;26.25;;;;;;;12.43;73.68;98311.05;232587;1174;115853;-67
2021/05/14 05:10:08;;;;;;;25.63;18.43;;;;;;;12.60;73.52;98311.41;232783;1174;116217;-64
2021/05/14 05:15:12;;;;;;;35.58;21.65;;;;;;;12.62;73.01;98314.60;232924;1174;115387;-68
2021/05/14 05:20:18;;;;;;;28.20;21.33;;;;;;;12.68;73.02;98310.01;232854;1174;116077;-68
2021/05/14 05:25:21;;;;;;;32.35;21.77;;;;;;;12.89;72.58;98313.25;232576;1174;116120;-66
2021/05/14 05:30:25;;;;;;;33.20;23.30;;;;;;;13.19;72.53;98310.27;233304;1174;115693;-68
2021/05/14 05:35:27;;;;;;;28.23;19.33;;;;;;;13.43;72.11;98310.25;233495;1174;116751;-65
2021/05/14 05:40:30;;;;;;;26.17;17.87;;;;;;;13.54;71.98;98324.28;233141;1176;116599;-66
2021/05/14 05:45:32;;;;;;;13.60;9.90;;;;;;;13.66;71.68;98325.46;233164;1175;117621;-65
2021/05/14 05:50:40;;;;;;;16.50;12.83;;;;;;;14.06;71.69;98326.73;234030;1175;116790;-64
2021/05/14 05:55:42;;;;;;;33.10;18.15;;;;;;;14.21;71.44;98339.11;235130;1175;117323;-64
2021/05/14 06:00:47;;;;;;;30.60;21.03;;;;;;;14.42;70.61;98337.72;234447;1176;116727;-64
2021/05/14 06:05:50;;;;;;;16.65;13.78;;;;;;;14.51;69.87;98343.21;234488;1168;116576;-64
2021/05/14 06:10:53;;;;;;;27.35;18.60;;;;;;;14.56;69.86;98351.17;232926;1176;116783;-63
2021/05/14 06:15:59;;;;;;;28.77;18.20;;;;;;;14.64;70.02;98353.19;233244;1174;116661;-64
2021/05/14 06:21:04;;;;;;;25.70;17.73;;;;;;;14.73;69.56;98362.13;233358;1174;116408;-64
2021/05/14 06:26:07;;;;;;;27.70;21.53;;;;;;;14.90;69.36;98371.52;232818;1174;115853;-66
2021/05/14 06:31:10;;;;;;;23.37;18.97;;;;;;;15.01;68.78;98371.02;233523;1167;115818;-67
2021/05/14 06:36:15;;;;;;;20.90;15.53;;;;;;;15.02;68.86;98380.66;232557;1174;116725;-66
2021/05/14 06:41:18;;;;;;;27.58;19.90;;;;;;;15.00;68.86;98385.52;233352;1174;116672;-65
2021/05/14 06:46:20;;;;;;;23.25;17.15;;;;;;;15.10;68.54;98390.72;233032;1174;116868;-66
2021/05/14 06:51:23;;;;;;;18.47;14.47;;;;;;;15.19;67.98;98390.03;232667;1174;115823;-66
2021/05/14 06:56:29;;;;;;;;;;;;;;;15.25;67.64;98394.22;232433;1174;115599;-65
2021/05/14 07:01:32;;;;;;;22.38;15.55;;;;;;;15.36;67.78;98395.59;233505;1174;103593;-65
2021/05/14 07:06:38;;;;;;;28.10;20.90;;;;;;;15.33;67.27;98399.67;232388;1174;116398;-65
2021/05/14 07:11:44;;;;;;;23.10;17.30;;;;;;;15.38;67.63;98407.63;232689;1174;116279;-65
2021/05/14 07:16:47;;;;;;;23.13;17.97;;;;;;;15.54;67.24;98413.52;232520;1174;116351;-65
2021/05/14 07:21:50;;;;;;;25.83;19.27;;;;;;;15.65;66.61;98416.80;233014;1174;116294;-66
2021/05/14 07:26:54;;;;;;;22.65;18.23;;;;;;;15.79;66.55;98420.28;232612;1174;116152;-65
2021/05/14 07:31:58;;;;;;;26.83;17.00;;;;;;;16.00;66.31;98420.64;232706;1174;116302;-66
2021/05/14 07:37:07;;;;;;;23.23;18.95;;;;;;;16.15;65.77;98434.56;232491;1174;116335;-66
2021/05/14 07:42:16;;;;;;;27.55;18.75;;;;;;;16.25;65.71;98435.41;235052;1171;115955;-66
2021/05/14 07:47:20;;;;;;;26.70;19.50;;;;;;;16.45;64.91;98425.01;233244;1174;116104;-66
2021/05/14 07:52:23;;;;;;;26.35;17.63;;;;;;;16.99;64.87;98419.69;232373;1174;115721;-68
2021/05/14 07:57:27;;;;;;;20.25;15.80;;;;;;;18.22;64.41;98434.84;233615;1169;116310;-66
2021/05/14 08:02:30;;;;;;;19.90;16.40;;;;;;;18.59;62.69;98421.84;235075;1174;115209;-66
2021/05/14 08:07:34;;;;;;;22.70;16.40;;;;;;;18.54;61.49;98428.19;233578;1171;115213;-65
2021/05/14 08:12:37;;;;;;;24.00;16.17;;;;;;;18.12;61.18;98444.03;233383;1174;115982;-65
2021/05/14 08:17:55;;;;;;;22.97;17.23;;;;;;;17.73;61.33;98450.28;232684;1167;116415;-65
2021/05/14 08:23:01;;;;;;;24.90;18.13;;;;;;;17.61;61.16;98463.54;233681;1174;114949;-65
2021/05/14 08:28:05;;;;;;;20.85;15.73;;;;;;;17.48;61.32;98465.22;233673;1174;116047;-65
2021/05/14 08:33:13;;;;;;;20.43;15.50;;;;;;;17.43;61.60;98467.25;232768;1174;117178;-66
2021/05/14 08:38:16;;;;;;;20.10;15.50;;;;;;;17.48;61.28;98473.30;233207;1174;116358;-64
2021/05/14 08:43:19;;;;;;;22.70;17.58;;;;;;;17.39;60.98;98467.11;234013;1174;116469;-65
2021/05/14 08:48:23;;;;;;;27.70;22.30;;;;;;;17.36;61.20;98477.70;233404;1174;117031;-67
2021/05/14 08:53:27;;;;;;;21.10;17.25;;;;;;;17.31;61.19;98491.30;232552;1174;115809;-67
2021/05/14 08:58:30;;;;;;;29.90;16.95;;;;;;;17.12;61.08;98486.89;232427;1174;115253;-67
2021/05/14 09:03:56;;;;;;;20.50;16.20;;;;;;;17.06;61.51;98488.15;232457;1174;115347;-67
2021/05/14 09:09:04;;;;;;;20.75;14.23;;;;;;;17.00;61.47;98502.83;232388;1174;116251;-67
2021/05/14 09:14:47;;;;;;;9.07;6.57;;;;;;;16.89;61.81;98501.47;233038;1174;115618;-68
2021/05/14 09:19:51;;;;;;;25.45;14.95;;;;;;;16.78;62.26;98502.84;232774;1173;114848;-65
2021/05/14 09:25:06;;;;;;;25.57;17.97;;;;;;;16.79;61.85;98509.81;232395;1174;116056;-67
2021/05/14 09:30:10;;;;;;;30.08;20.52;;;;;;;16.71;62.21;98518.60;233685;1174;115883;-67
2021/05/14 09:35:15;;;;;;;23.10;17.07;;;;;;;16.66;62.38;98524.89;232438;1170;115501;-66
2021/05/14 09:40:23;;;;;;;20.00;14.60;;;;;;;16.69;62.60;98531.56;232945;1174;115298;-66
2021/05/14 09:45:29;;;;;;;19.83;14.63;;;;;;;16.75;62.57;98528.45;233515;1174;116972;-65
2021/05/14 09:50:37;;;;;;;22.00;14.95;;;;;;;16.69;62.56;98534.25;234497;1174;115844;-65
2021/05/14 09:56:26;;;;;;;30.88;19.60;;;;;;;16.80;62.67;98536.42;233752;1174;116785;-66
2021/05/14 10:01:15;;;;;;;24.53;20.10;;;;;;;16.90;62.78;98545.34;235133;1174;115709;-66
2021/05/14 10:06:20;;;;;;;29.95;20.08;;;;;;;16.83;62.37;98543.86;235151;1169;115932;-65
2021/05/14 10:11:24;;;;;;;22.53;15.88;;;;;;;17.02;62.46;98553.67;235145;1174;116283;-69
2021/05/14 10:16:27;;;;;;;20.60;15.80;;;;;;;17.16;62.22;98549.81;232677;1174;116105;-68
2021/05/14 10:21:32;;;;;;;19.58;15.13;;;;;;;17.32;61.97;98544.06;233778;1174;116080;-66
2021/05/14 10:26:37;;;;;;;24.80;16.70;;;;;;;17.64;62.27;98549.16;233775;1174;115909;-66
2021/05/14 10:31:45;;;;;;;19.00;15.40;;;;;;;18.17;61.92;98545.58;233468;1174;115956;-66
2021/05/14 10:36:50;;;;;;;19.23;16.25;;;;;;;18.47;60.83;98551.98;233442;1174;116566;-67
2021/05/14 10:41:55;;;;;;;23.00;17.68;;;;;;;18.58;60.41;98549.80;233844;1174;115990;-65
2021/05/14 10:46:59;;;;;;;21.87;14.77;;;;;;;18.55;60.07;98545.02;233782;1174;116735;-66
2021/05/14 10:52:03;;;;;;;16.60;13.20;;;;;;;18.60;60.02;98553.01;232480;1174;118175;-67
2021/05/14 10:57:40;;;;;;;17.10;12.43;;;;;;;18.61;59.76;98559.99;232484;1174;117346;-67
2021/05/14 11:02:43;;;;;;;19.57;13.00;;;;;;;18.77;59.25;98559.20;232322;1174;116276;-65
2021/05/14 11:07:46;;;;;;;16.60;12.83;;;;;;;18.99;59.29;98558.23;232790;1174;117956;-67
2021/05/14 11:12:49;;;;;;;15.83;11.47;;;;;;;18.90;58.33;98565.57;232686;1174;116809;-66
2021/05/14 11:18:07;;;;;;;17.33;12.13;;;;;;;18.98;58.61;98572.06;233077;1175;116515;-64
2021/05/14 11:23:34;;;;;;;14.10;11.00;;;;;;;19.12;58.26;98570.80;232694;1174;117954;-66
2021/05/14 11:28:47;;;;;;;13.63;11.77;;;;;;;18.66;58.00;98584.91;233212;1174;116123;-65
2021/05/14 11:33:52;;;;;;;12.48;10.65;;;;;;;18.34;58.31;98588.80;232555;1174;116207;-67
2021/05/14 11:38:56;;;;;;;10.00;7.83;;;;;;;18.50;58.71;98591.84;232421;1174;115720;-65
2021/05/14 11:44:03;;;;;;;13.17;11.00;;;;;;;18.26;58.83;98594.95;232482;1174;116768;-66
2021/05/14 11:49:10;;;;;;;16.73;10.10;;;;;;;18.03;58.60;98609.63;232627;1174;116379;-63
2021/05/14 11:54:17;;;;;;;13.28;10.15;;;;;;;18.00;59.10;98604.86;234084;1174;115727;-65
2021/05/14 11:59:21;;;;;;;11.00;9.75;;;;;;;18.19;58.99;98616.19;233271;1174;115890;-67
2021/05/14 12:04:24;;;;;;;13.75;11.05;;;;;;;18.46;58.62;98617.86;235165;1174;116387;-64
2021/05/14 12:09:26;;;;;;;16.28;9.05;;;;;;;18.26;58.63;98616.54;235034;1174;115597;-63
2021/05/14 12:14:29;;;;;;;12.13;10.73;;;;;;;18.08;58.55;98631.84;235029;1174;115026;-65
2021/05/14 12:19:48;;;;;;;12.10;9.25;;;;;;;18.04;58.76;98638.95;232586;1174;116240;-65
2021/05/14 12:24:50;;;;;;;12.27;10.43;;;;;;;17.98;58.72;98632.13;233225;1174;115880;-63
2021/05/14 12:30:04;;;;;;;10.55;9.00;;;;;;;17.80;58.73;98636.62;233071;1174;116247;-65
2021/05/14 12:35:08;;;;;;;12.90;9.90;;;;;;;17.75;59.40;98636.74;233560;1174;115473;-66
2021/05/14 12:40:21;;;;;;;16.15;10.53;;;;;;;17.77;59.59;98639.13;233292;1174;116610;-65
2021/05/14 12:45:24;;;;;;;17.05;11.60;;;;;;;17.84;59.68;98651.08;233315;1174;116860;-65
2021/05/14 12:50:27;;;;;;;12.88;10.65;;;;;;;18.07;59.53;98665.30;232516;1174;116031;-64
2021/05/14 12:55:39;;;;;;;11.97;8.63;;;;;;;18.19;59.29;98662.04;233085;1174;116181;-64
2021/05/14 13:00:43;;;;;;;17.15;10.10;;;;;;;18.28;59.42;98654.80;233013;1174;116195;-63
2021/05/14 13:05:52;;;;;;;16.53;12.33;;;;;;;18.19;59.40;98670.13;232496;1174;136221;-63
2021/05/14 13:11:18;;;;;;;16.30;10.15;;;;;;;18.10;59.58;98675.48;232813;1175;117125;-64
2021/05/14 13:16:22;;;;;;;14.83;9.78;;;;;;;18.06;59.49;98679.09;233077;1174;116115;-64
2021/05/14 13:21:27;;;;;;;12.83;10.30;;;;;;;17.94;59.34;98678.89;232278;1174;115759;-64
2021/05/14 13:26:30;;;;;;;12.00;10.60;;;;;;;17.85;59.45;98684.22;233050;1174;116294;-68
2021/05/14 13:31:34;;;;;;;11.10;9.90;;;;;;;17.69;59.59;98685.72;232853;1174;118123;-65
2021/05/14 13:36:37;;;;;;;12.00;9.23;;;;;;;17.65;60.03;98690.91;233455;1175;117320;-66
2021/05/14 13:41:44;;;;;;;9.50;8.40;;;;;;;17.59;59.59;98696.70;232542;1176;196017;-65
2021/05/14 13:46:49;;;;;;;15.50;11.40;;;;;;;17.56;60.10;98702.69;233038;1174;139043;-67
2021/05/14 13:51:52;;;;;;;15.75;12.15;;;;;;;17.66;60.41;98697.90;232474;1176;116348;-67
2021/05/14 13:56:58;;;;;;;21.28;12.10;;;;;;;17.71;59.95;98700.48;232944;1174;117531;-68
2021/05/14 14:02:03;;;;;;;9.00;8.08;;;;;;;17.60;59.97;98704.47;234988;1174;115826;-67
2021/05/14 14:07:09;;;;;;;9.43;8.13;;;;;;;17.52;59.95;98705.20;235104;1174;115584;-68
2021/05/14 14:12:13;;;;;;;10.43;8.40;;;;;;;17.43;59.91;98715.89;235067;1174;120908;-70
2021/05/14 14:17:17;;;;;;;15.53;11.30;;;;;;;17.54;60.30;98715.67;234944;1176;116208;-72
2021/05/14 14:22:20;;;;;;;12.63;11.33;;;;;;;17.53;60.00;98722.16;234989;1174;117117;-70
2021/05/14 14:27:27;;;;;;;11.67;9.87;;;;;;;17.55;60.14;98718.06;233812;1175;116812;-68
2021/05/14 14:32:30;;;;;;;11.95;9.48;;;;;;;17.58;60.20;98709.38;233053;1174;115840;-68
2021/05/14 14:37:34;;;;;;;10.95;9.65;;;;;;;17.60;59.91;98715.25;234115;1174;115255;-69
2021/05/14 14:42:40;;;;;;;15.88;10.10;;;;;;;17.65;59.88;98712.48;233538;1174;116815;-64
2021/05/14 14:47:43;;;;;;;11.38;9.13;;;;;;;17.63;60.13;98709.26;232540;1174;116963;-68
2021/05/14 14:52:46;;;;;;;10.05;8.60;;;;;;;17.53;60.23;98714.88;233393;1171;116001;-65
2021/05/14 14:57:50;;;;;;;10.53;9.45;;;;;;;17.25;60.08;98714.16;233476;1174;116596;-65
2021/05/14 15:02:53;;;;;;;13.60;9.73;;;;;;;16.85;60.13;98718.50;232813;1174;116311;-65
2021/05/14 15:07:57;;;;;;;10.90;9.85;;;;;;;16.63;60.58;98708.42;233024;1170;115842;-65
2021/05/14 15:13:00;;;;;;;8.85;8.00;;;;;;;16.51;60.81;98714.28;232220;1174;115587;-65
2021/05/14 15:18:04;;;;;;;10.00;8.93;;;;;;;16.51;61.39;98711.59;232700;1174;116492;-65
2021/05/14 15:23:18;;;;;;;9.65;8.73;;;;;;;16.44;61.18;98708.53;232853;1174;116543;-63
2021/05/14 15:28:22;;;;;;;8.80;7.93;;;;;;;16.34;61.65;98710.59;232581;1176;116673;-65
2021/05/14 15:33:25;;;;;;;6.10;5.33;;;;;;;16.39;61.78;98705.93;233885;1174;116721;-66
2021/05/14 15:38:31;;;;;;;12.53;9.60;;;;;;;16.41;61.88;98716.39;232933;1174;116406;-64
2021/05/14 15:43:36;;;;;;;9.53;7.93;;;;;;;16.39;61.92;98724.76;232576;1176;116636;-63
2021/05/14 15:48:41;;;;;;;9.30;8.10;;;;;;;16.28;62.01;98720.64;233718;1174;115762;-64
2021/05/14 15:53:44;;;;;;;10.05;8.25;;;;;;;16.24;61.93;98727.70;233089;1174;115733;-65
2021/05/14 15:58:46;;;;;;;11.83;9.37;;;;;;;16.25;61.96;98725.81;233662;1174;116293;-65
2021/05/14 16:03:49;;;;;;;8.53;7.78;;;;;;;16.30;62.12;98731.91;233073;1174;115056;-65
2021/05/14 16:08:51;;;;;;;4.63;4.23;;;;;;;16.24;62.24;98738.46;234595;1174;115201;-64
2021/05/14 16:13:54;;;;;;;7.67;6.97;;;;;;;16.16;62.57;98736.47;235150;1174;115827;-63
2021/05/14 16:18:57;;;;;;;7.97;7.17;;;;;;;16.14;62.45;98746.72;235185;1174;115058;-64
2021/05/14 16:24:00;;;;;;;9.20;8.27;;;;;;;16.07;62.49;98743.61;233714;1174;115835;-64
2021/05/14 16:29:03;;;;;;;9.05;8.25;;;;;;;15.99;62.00;98746.96;233415;1174;115955;-64
2021/05/14 16:34:06;;;;;;;15.10;10.73;;;;;;;15.95;62.54;98756.70;232981;1174;116763;-64
2021/05/14 16:39:17;;;;;;;10.53;9.37;;;;;;;15.89;62.36;98760.59;232389;1174;116564;-66
2021/05/14 16:44:20;;;;;;;11.40;7.50;;;;;;;15.82;63.19;98752.89;233008;1176;116834;-64
2021/05/14 16:49:24;;;;;;;8.98;7.70;;;;;;;15.74;62.95;98751.66;233128;1174;116184;-66
2021/05/14 16:54:27;;;;;;;7.93;7.10;;;;;;;15.67;62.92;98756.59;232582;1174;175431;-66
2021/05/14 16:59:30;;;;;;;7.63;6.78;;;;;;;15.53;62.92;98761.09;233274;1174;115318;-67
2021/05/14 17:04:34;;;;;;;19.25;8.60;;;;;;;15.48;63.12;98766.52;232344;1174;115811;-64
2021/05/14 17:09:37;;;;;;;9.20;8.20;;;;;;;15.44;63.45;98770.88;233164;1174;115673;-64
2021/05/14 17:14:40;;;;;;;8.85;7.93;;;;;;;15.34;63.84;98776.38;232884;1174;115451;-65
2021/05/14 17:19:44;;;;;;;9.00;6.85;;;;;;;15.20;63.58;98773.61;233106;1173;116939;-66
2021/05/14 17:24:49;;;;;;;10.70;8.80;;;;;;;15.04;64.04;98772.19;232999;1174;115537;-66
2021/05/14 17:29:53;;;;;;;9.08;7.70;;;;;;;14.92;64.00;98777.19;232455;1174;115643;-68
2021/05/14 17:34:57;;;;;;;16.68;8.78;;;;;;;14.80;63.98;98780.25;233094;1176;116271;-67
2021/05/14 17:40:05;;;;;;;8.60;7.58;;;;;;;14.67;63.91;98778.27;232793;1174;116370;-67
2021/05/14 17:45:10;;;;;;;6.77;6.07;;;;;;;14.56;64.37;98788.30;233943;1175;117765;-65
2021/05/14 17:50:16;;;;;;;14.03;6.23;;;;;;;14.48;64.77;98789.70;233309;1174;115737;-66
2021/05/14 17:55:19;;;;;;;9.03;8.18;;;;;;;14.40;64.73;98797.52;233749;1174;115613;-65
2021/05/14 18:00:23;;;;;;;8.83;7.75;;;;;;;14.36;64.92;98807.23;234356;1174;115329;-65
2021/05/14 18:05:30;;;;;;;11.35;8.80;;;;;;;14.31;65.08;98815.31;234320;1174;115483;-65
2021/05/14 18:10:34;;;;;;;12.55;6.65;;;;;;;14.29;65.51;98826.32;234778;1174;116137;-66
2021/05/14 18:15:38;;;;;;;9.40;7.75;;;;;;;14.23;65.20;98835.48;234181;1174;116366;-65
2021/05/14 18:20:41;;;;;;;16.05;7.83;;;;;;;14.22;65.34;98841.91;235082;1174;115324;-66
2021/05/14 18:25:48;;;;;;;7.90;7.10;;;;;;;14.17;65.62;98847.31;234962;1174;114803;-66
2021/05/14 18:30:53;;;;;;;10.48;9.40;;;;;;;14.09;65.63;98851.38;234069;1174;114754;-66
2021/05/14 18:35:58;;;;;;;6.83;6.18;;;;;;;13.96;66.05;98867.30;234298;1174;115655;-66
2021/05/14 18:41:03;;;;;;;14.90;8.57;;;;;;;13.90;65.60;98863.84;232719;1174;114716;-68
2021/05/14 18:46:06;;;;;;;10.63;8.83;;;;;;;13.84;66.68;98864.95;234057;1174;115885;-66
2021/05/14 18:51:10;;;;;;;16.93;8.53;;;;;;;13.77;66.69;98870.60;232954;1174;116844;-68
2021/05/14 18:56:14;;;;;;;11.00;7.85;;;;;;;13.71;66.64;98873.61;232603;1174;115950;-67
2021/05/14 19:01:18;;;;;;;12.03;9.37;;;;;;;13.64;66.90;98876.58;232845;1174;115692;-68
2021/05/14 19:06:23;;;;;;;12.68;9.73;;;;;;;13.67;67.34;98883.27;232833;1174;115766;-68
2021/05/14 19:11:26;;;;;;;11.98;9.33;;;;;;;13.65;67.50;98893.45;232909;1174;114897;-67
2021/05/14 19:16:32;;;;;;;10.10;9.07;;;;;;;13.56;67.54;98893.21;233333;1175;115200;-66
2021/05/14 19:21:48;;;;;;;12.47;8.33;;;;;;;13.48;67.84;98889.22;233251;1176;115891;-67
2021/05/14 19:27:34;;;;;;;13.15;9.83;;;;;;;13.46;67.84;98906.63;232613;1174;135875;-67
2021/05/14 19:48:40;;;;;;;13.53;10.93;;;;;;;13.31;68.95;98926.23;233440;1174;115419;-66
2021/05/14 19:53:44;;;;;;;11.77;10.53;;;;;;;13.35;68.89;98938.00;232523;1174;115450;-67
2021/05/14 19:58:48;;;;;;;14.63;10.70;;;;;;;13.36;68.59;98930.77;233674;1173;115477;-67
2021/05/14 20:03:52;;;;;;;11.00;9.60;;;;;;;13.35;69.17;98947.91;232652;1174;115963;-68
2021/05/14 20:08:56;;;;;;;14.38;12.43;;;;;;;13.34;68.62;98951.66;233467;1173;118888;-67
2021/05/14 20:14:01;;;;;;;11.23;10.13;;;;;;;13.30;68.75;98959.42;234316;1174;115006;-66
2021/05/14 20:19:07;;;;;;;12.20;10.83;;;;;;;13.32;69.07;98959.16;234638;1174;115975;-65
2021/05/14 20:24:12;;;;;;;12.53;9.15;;;;;;;13.30;69.21;98969.33;233202;1174;115388;-67
2021/05/14 20:29:16;;;;;;;12.80;10.00;;;;;;;13.27;68.87;98973.34;232903;1174;115743;-67
2021/05/14 20:34:20;;;;;;;12.18;9.88;;;;;;;13.25;68.78;98966.66;234018;1174;115904;-68
2021/05/14 20:39:28;;;;;;;7.83;6.50;;;;;;;13.14;69.07;98980.05;234284;1174;115614;-66
2021/05/14 20:44:34;;;;;;;8.10;7.30;;;;;;;13.00;69.22;98978.97;233792;1174;115661;-65
2021/05/14 20:49:40;;;;;;;7.43;6.73;;;;;;;12.96;69.13;98988.60;232558;1174;115266;-67
2021/05/14 20:54:44;;;;;;;7.73;6.93;;;;;;;12.84;69.80;98985.38;232723;1174;115305;-68
2021/05/14 20:59:47;;;;;;;8.90;6.23;;;;;;;12.78;70.11;98991.83;232570;1174;117830;-68
2021/05/14 21:04:51;;;;;;;5.95;5.20;;;;;;;12.74;70.16;98994.23;232529;1174;115362;-67
2021/05/14 21:09:54;;;;;;;6.80;6.00;;;;;;;12.66;70.10;98984.05;232943;1176;115098;-67
2021/05/14 21:14:58;;;;;;;5.93;5.00;;;;;;;12.65;70.20;98982.44;232535;1176;115906;-68
2021/05/14 21:20:05;;;;;;;7.83;5.73;;;;;;;12.62;70.08;98974.15;232580;1176;115752;-67
2021/05/14 21:25:10;;;;;;;5.55;4.88;;;;;;;12.57;70.28;98977.62;232721;1174;115065;-68
2021/05/14 21:30:14;;;;;;;7.83;6.30;;;;;;;12.60;70.58;98979.77;232762;1174;114703;-67
2021/05/14 21:35:21;;;;;;;7.20;6.15;;;;;;;12.56;70.46;98969.86;233477;1174;115920;-67
2021/05/14 21:40:26;;;;;;;8.30;5.70;;;;;;;12.57;70.50;98974.14;232687;1174;115208;-67
2021/05/14 21:45:29;;;;;;;7.88;5.43;;;;;;;12.59;70.50;98977.35;232610;1172;116701;-67
2021/05/14 21:50:31;;;;;;;12.43;6.28;;;;;;;12.64;70.94;98975.49;232368;1176;117475;-68
2021/05/14 21:55:33;;;;;;;8.55;6.15;;;;;;;12.65;70.46;98977.09;233093;1175;118166;-67
2021/05/14 22:00:40;;;;;;;6.03;5.47;;;;;;;12.56;70.52;98977.88;232407;1175;116325;-67
2021/05/14 22:05:43;;;;;;;7.53;6.70;;;;;;;12.57;70.87;98976.81;232950;1174;115812;-67
2021/05/14 22:10:46;;;;;;;10.80;6.67;;;;;;;12.62;70.77;98982.17;233897;1171;115093;-65
2021/05/14 22:15:49;;;;;;;9.23;5.93;;;;;;;12.62;70.90;98977.63;234710;1174;115372;-65
2021/05/14 22:20:52;;;;;;;8.28;5.78;;;;;;;12.60;70.60;98973.61;234975;1174;115644;-66
2021/05/14 22:25:54;;;;;;;8.37;6.70;;;;;;;12.63;70.31;98978.42;235068;1174;115755;-65
2021/05/14 22:30:56;;;;;;;7.80;6.53;;;;;;;12.66;70.56;98977.90;235209;1176;117965;-65
2021/05/14 22:35:58;;;;;;;7.00;5.50;;;;;;;12.63;70.52;98989.13;235223;1174;115824;-65
2021/05/14 22:41:00;;;;;;;10.80;6.55;;;;;;;12.64;70.80;98990.73;233369;1176;118458;-66
2021/05/14 22:46:03;;;;;;;8.80;6.68;;;;;;;12.65;70.42;98986.99;232565;1174;115574;-67
2021/05/14 22:51:06;;;;;;;11.03;7.65;;;;;;;12.64;70.52;98986.19;233423;1174;115244;-68
2021/05/14 22:56:08;;;;;;;8.05;7.20;;;;;;;12.66;70.65;98986.73;232671;1174;116147;-67
2021/05/14 23:01:10;;;;;;;8.85;5.80;;;;;;;12.67;70.78;98990.20;232477;1174;142931;-68
2021/05/14 23:06:13;;;;;;;8.07;7.27;;;;;;;12.61;70.80;98988.59;232534;1171;115357;-67
2021/05/14 23:11:15;;;;;;;7.57;6.70;;;;;;;12.60;70.30;98976.28;232519;1171;142045;-68
2021/05/14 23:16:17;;;;;;;6.75;6.15;;;;;;;12.59;70.76;98986.17;232565;1174;115342;-68
2021/05/14 23:21:19;;;;;;;7.55;5.30;;;;;;;12.49;70.72;98986.19;232550;1174;115845;-67
2021/05/14 23:26:21;;;;;;;7.70;6.40;;;;;;;12.50;70.76;98987.79;232555;1174;116592;-68